sensor_id;sensor_type;location;lat;lon;timestamp;P1;durP1;ratioP1;P2;durP2;ratioP2
80675;SDS011;70041;46.088;18.268;2023-12-04T00:01:22;18.55;;;8.10;;
80675;SDS011;70041;46.088;18.268;2023-12-04T00:03:47;16.23;;;5.90;;
80675;SDS011;70041;46.088;18.268;2023-12-04T00:06:13;19.00;;;6.00;;
80675;SDS011;70041;46.088;18.268;2023-12-04T00:08:38;30.55;;;10.88;;
80675;SDS011;70041;46.088;18.268;2023-12-04T00:11:05;22.63;;;8.23;;
80675;SDS011;70041;46.088;18.268;2023-12-04T00:13:30;15.82;;;6.35;;
80675;SDS011;70041;46.088;18.268;2023-12-04T00:15:56;10.68;;;5.05;;
80675;SDS011;70041;46.088;18.268;2023-12-04T00:18:22;13.70;;;4.53;;
80675;SDS011;70041;46.088;18.268;2023-12-04T00:20:47;12.75;;;6.22;;
80675;SDS011;70041;46.088;18.268;2023-12-04T00:23:13;17.10;;;6.03;;
80675;SDS011;70041;46.088;18.268;2023-12-04T00:25:38;11.30;;;5.30;;
80675;SDS011;70041;46.088;18.268;2023-12-04T00:28:04;13.93;;;5.23;;
80675;SDS011;70041;46.088;18.268;2023-12-04T00:30:29;11.73;;;3.87;;
80675;SDS011;70041;46.088;18.268;2023-12-04T00:32:54;9.40;;;4.07;;
80675;SDS011;70041;46.088;18.268;2023-12-04T00:35:20;8.17;;;3.43;;
80675;SDS011;70041;46.088;18.268;2023-12-04T00:37:45;9.03;;;3.70;;
80675;SDS011;70041;46.088;18.268;2023-12-04T00:40:11;10.07;;;4.30;;
80675;SDS011;70041;46.088;18.268;2023-12-04T00:42:36;8.48;;;3.53;;
80675;SDS011;70041;46.088;18.268;2023-12-04T00:45:02;27.97;;;11.27;;
80675;SDS011;70041;46.088;18.268;2023-12-04T00:47:28;34.90;;;14.50;;
80675;SDS011;70041;46.088;18.268;2023-12-04T00:49:54;43.73;;;15.87;;
80675;SDS011;70041;46.088;18.268;2023-12-04T00:52:19;32.93;;;14.20;;
80675;SDS011;70041;46.088;18.268;2023-12-04T00:54:45;34.13;;;13.30;;
80675;SDS011;70041;46.088;18.268;2023-12-04T00:57:10;15.90;;;6.47;;
80675;SDS011;70041;46.088;18.268;2023-12-04T00:59:35;15.93;;;7.73;;
80675;SDS011;70041;46.088;18.268;2023-12-04T01:02:01;18.90;;;7.47;;
80675;SDS011;70041;46.088;18.268;2023-12-04T01:04:26;15.37;;;5.77;;
80675;SDS011;70041;46.088;18.268;2023-12-04T01:06:52;11.07;;;5.13;;
80675;SDS011;70041;46.088;18.268;2023-12-04T01:09:17;14.55;;;6.35;;
80675;SDS011;70041;46.088;18.268;2023-12-04T01:11:43;16.30;;;6.57;;
80675;SDS011;70041;46.088;18.268;2023-12-04T01:14:08;18.83;;;6.90;;
80675;SDS011;70041;46.088;18.268;2023-12-04T01:16:34;15.70;;;4.55;;
80675;SDS011;70041;46.088;18.268;2023-12-04T01:18:59;8.27;;;4.10;;
80675;SDS011;70041;46.088;18.268;2023-12-04T01:21:25;5.90;;;2.63;;
80675;SDS011;70041;46.088;18.268;2023-12-04T01:23:50;10.23;;;3.63;;
80675;SDS011;70041;46.088;18.268;2023-12-04T01:26:16;9.50;;;3.60;;
80675;SDS011;70041;46.088;18.268;2023-12-04T01:28:41;8.57;;;4.20;;
80675;SDS011;70041;46.088;18.268;2023-12-04T01:31:07;9.47;;;5.00;;
80675;SDS011;70041;46.088;18.268;2023-12-04T01:33:32;16.27;;;7.30;;
80675;SDS011;70041;46.088;18.268;2023-12-04T01:35:57;14.47;;;6.57;;
80675;SDS011;70041;46.088;18.268;2023-12-04T01:38:23;18.17;;;7.80;;
80675;SDS011;70041;46.088;18.268;2023-12-04T01:40:48;6.65;;;3.60;;
80675;SDS011;70041;46.088;18.268;2023-12-04T01:43:14;10.70;;;3.63;;
80675;SDS011;70041;46.088;18.268;2023-12-04T01:45:40;11.27;;;4.43;;
80675;SDS011;70041;46.088;18.268;2023-12-04T01:48:06;8.40;;;3.17;;
80675;SDS011;70041;46.088;18.268;2023-12-04T01:50:33;7.07;;;3.28;;
80675;SDS011;70041;46.088;18.268;2023-12-04T01:52:59;10.55;;;4.53;;
80675;SDS011;70041;46.088;18.268;2023-12-04T01:55:25;9.87;;;3.40;;
80675;SDS011;70041;46.088;18.268;2023-12-04T01:57:51;9.18;;;3.78;;
80675;SDS011;70041;46.088;18.268;2023-12-04T02:00:18;11.20;;;4.72;;
80675;SDS011;70041;46.088;18.268;2023-12-04T02:02:46;7.60;;;3.07;;
80675;SDS011;70041;46.088;18.268;2023-12-04T02:05:11;7.30;;;2.90;;
80675;SDS011;70041;46.088;18.268;2023-12-04T02:07:40;8.60;;;4.07;;
80675;SDS011;70041;46.088;18.268;2023-12-04T02:10:06;10.82;;;5.25;;
80675;SDS011;70041;46.088;18.268;2023-12-04T02:12:32;15.45;;;6.28;;
80675;SDS011;70041;46.088;18.268;2023-12-04T02:14:58;9.50;;;3.07;;
80675;SDS011;70041;46.088;18.268;2023-12-04T02:17:24;10.95;;;3.67;;
80675;SDS011;70041;46.088;18.268;2023-12-04T02:19:51;9.88;;;3.58;;
80675;SDS011;70041;46.088;18.268;2023-12-04T02:22:18;10.83;;;3.90;;
80675;SDS011;70041;46.088;18.268;2023-12-04T02:24:43;9.00;;;4.07;;
80675;SDS011;70041;46.088;18.268;2023-12-04T02:27:20;10.43;;;3.78;;
80675;SDS011;70041;46.088;18.268;2023-12-04T02:29:51;8.50;;;2.72;;
80675;SDS011;70041;46.088;18.268;2023-12-04T02:32:18;11.20;;;4.85;;
80675;SDS011;70041;46.088;18.268;2023-12-04T02:34:46;14.40;;;7.37;;
80675;SDS011;70041;46.088;18.268;2023-12-04T02:37:13;10.32;;;4.32;;
80675;SDS011;70041;46.088;18.268;2023-12-04T02:39:40;8.48;;;4.65;;
80675;SDS011;70041;46.088;18.268;2023-12-04T02:42:06;10.05;;;2.90;;
80675;SDS011;70041;46.088;18.268;2023-12-04T02:44:32;8.53;;;3.73;;
80675;SDS011;70041;46.088;18.268;2023-12-04T02:46:58;12.55;;;4.88;;
80675;SDS011;70041;46.088;18.268;2023-12-04T02:49:23;11.10;;;4.80;;
80675;SDS011;70041;46.088;18.268;2023-12-04T02:51:48;18.43;;;9.50;;
80675;SDS011;70041;46.088;18.268;2023-12-04T02:54:14;19.53;;;8.63;;
80675;SDS011;70041;46.088;18.268;2023-12-04T02:56:39;16.53;;;6.90;;
80675;SDS011;70041;46.088;18.268;2023-12-04T02:59:04;8.73;;;3.80;;
80675;SDS011;70041;46.088;18.268;2023-12-04T03:01:30;8.43;;;2.67;;
80675;SDS011;70041;46.088;18.268;2023-12-04T03:03:55;6.40;;;2.25;;
80675;SDS011;70041;46.088;18.268;2023-12-04T03:06:21;9.73;;;2.47;;
80675;SDS011;70041;46.088;18.268;2023-12-04T03:08:46;8.30;;;2.77;;
80675;SDS011;70041;46.088;18.268;2023-12-04T03:11:12;12.20;;;3.17;;
80675;SDS011;70041;46.088;18.268;2023-12-04T03:13:37;3.57;;;1.67;;
80675;SDS011;70041;46.088;18.268;2023-12-04T03:16:03;7.50;;;3.22;;
80675;SDS011;70041;46.088;18.268;2023-12-04T03:18:28;13.20;;;2.97;;
80675;SDS011;70041;46.088;18.268;2023-12-04T03:20:54;7.77;;;2.63;;
80675;SDS011;70041;46.088;18.268;2023-12-04T03:23:19;6.97;;;3.13;;
80675;SDS011;70041;46.088;18.268;2023-12-04T03:25:45;10.73;;;4.17;;
80675;SDS011;70041;46.088;18.268;2023-12-04T03:28:10;14.30;;;4.83;;
80675;SDS011;70041;46.088;18.268;2023-12-04T03:30:36;9.63;;;4.70;;
80675;SDS011;70041;46.088;18.268;2023-12-04T03:33:01;11.10;;;3.65;;
80675;SDS011;70041;46.088;18.268;2023-12-04T03:35:27;10.23;;;3.83;;
80675;SDS011;70041;46.088;18.268;2023-12-04T03:37:52;10.40;;;3.97;;
80675;SDS011;70041;46.088;18.268;2023-12-04T03:40:18;10.23;;;4.67;;
80675;SDS011;70041;46.088;18.268;2023-12-04T03:42:43;9.83;;;4.13;;
80675;SDS011;70041;46.088;18.268;2023-12-04T03:45:08;5.50;;;2.57;;
80675;SDS011;70041;46.088;18.268;2023-12-04T03:47:34;8.35;;;3.70;;
80675;SDS011;70041;46.088;18.268;2023-12-04T03:50:00;13.17;;;4.07;;
80675;SDS011;70041;46.088;18.268;2023-12-04T03:52:25;7.33;;;3.87;;
80675;SDS011;70041;46.088;18.268;2023-12-04T03:54:50;8.63;;;4.57;;
80675;SDS011;70041;46.088;18.268;2023-12-04T03:57:16;10.07;;;4.45;;
80675;SDS011;70041;46.088;18.268;2023-12-04T03:59:41;9.27;;;3.80;;
80675;SDS011;70041;46.088;18.268;2023-12-04T04:02:09;8.20;;;3.77;;
80675;SDS011;70041;46.088;18.268;2023-12-04T04:04:34;4.97;;;2.45;;
80675;SDS011;70041;46.088;18.268;2023-12-04T04:06:59;15.10;;;4.37;;
80675;SDS011;70041;46.088;18.268;2023-12-04T04:09:25;31.93;;;9.53;;
80675;SDS011;70041;46.088;18.268;2023-12-04T04:11:50;20.20;;;8.07;;
80675;SDS011;70041;46.088;18.268;2023-12-04T04:14:15;31.73;;;9.60;;
80675;SDS011;70041;46.088;18.268;2023-12-04T04:16:41;15.87;;;5.93;;
80675;SDS011;70041;46.088;18.268;2023-12-04T04:19:06;10.68;;;4.93;;
80675;SDS011;70041;46.088;18.268;2023-12-04T04:21:32;13.75;;;7.40;;
80675;SDS011;70041;46.088;18.268;2023-12-04T04:23:57;20.30;;;8.13;;
80675;SDS011;70041;46.088;18.268;2023-12-04T04:26:23;21.53;;;9.27;;
80675;SDS011;70041;46.088;18.268;2023-12-04T04:28:48;17.40;;;7.23;;
80675;SDS011;70041;46.088;18.268;2023-12-04T04:31:13;18.23;;;5.97;;
80675;SDS011;70041;46.088;18.268;2023-12-04T04:33:39;34.30;;;14.43;;
80675;SDS011;70041;46.088;18.268;2023-12-04T04:36:04;22.90;;;12.60;;
80675;SDS011;70041;46.088;18.268;2023-12-04T04:38:30;30.27;;;13.40;;
80675;SDS011;70041;46.088;18.268;2023-12-04T04:40:55;27.30;;;12.47;;
80675;SDS011;70041;46.088;18.268;2023-12-04T04:43:21;73.43;;;18.15;;
80675;SDS011;70041;46.088;18.268;2023-12-04T04:45:46;47.40;;;13.60;;
80675;SDS011;70041;46.088;18.268;2023-12-04T04:48:12;35.80;;;9.83;;
80675;SDS011;70041;46.088;18.268;2023-12-04T04:50:37;16.90;;;5.67;;
80675;SDS011;70041;46.088;18.268;2023-12-04T04:53:03;16.38;;;5.20;;
80675;SDS011;70041;46.088;18.268;2023-12-04T04:55:28;10.73;;;3.47;;
80675;SDS011;70041;46.088;18.268;2023-12-04T04:57:55;7.72;;;3.90;;
80675;SDS011;70041;46.088;18.268;2023-12-04T05:00:20;9.07;;;3.97;;
80675;SDS011;70041;46.088;18.268;2023-12-04T05:02:46;9.57;;;3.90;;
80675;SDS011;70041;46.088;18.268;2023-12-04T05:05:11;18.70;;;5.30;;
80675;SDS011;70041;46.088;18.268;2023-12-04T05:07:37;9.13;;;4.07;;
80675;SDS011;70041;46.088;18.268;2023-12-04T05:10:02;15.47;;;6.47;;
80675;SDS011;70041;46.088;18.268;2023-12-04T05:12:28;21.65;;;9.73;;
80675;SDS011;70041;46.088;18.268;2023-12-04T05:14:53;19.43;;;10.80;;
80675;SDS011;70041;46.088;18.268;2023-12-04T05:17:18;22.80;;;8.90;;
80675;SDS011;70041;46.088;18.268;2023-12-04T05:19:44;12.27;;;5.17;;
80675;SDS011;70041;46.088;18.268;2023-12-04T05:22:09;11.70;;;5.50;;
80675;SDS011;70041;46.088;18.268;2023-12-04T05:24:34;10.97;;;5.03;;
80675;SDS011;70041;46.088;18.268;2023-12-04T05:27:00;13.13;;;6.15;;
80675;SDS011;70041;46.088;18.268;2023-12-04T05:29:27;16.38;;;6.80;;
80675;SDS011;70041;46.088;18.268;2023-12-04T05:31:52;12.43;;;6.93;;
80675;SDS011;70041;46.088;18.268;2023-12-04T05:34:18;13.47;;;6.47;;
80675;SDS011;70041;46.088;18.268;2023-12-04T05:36:43;13.17;;;6.37;;
80675;SDS011;70041;46.088;18.268;2023-12-04T05:39:09;13.55;;;5.03;;
80675;SDS011;70041;46.088;18.268;2023-12-04T05:41:34;12.18;;;5.03;;
80675;SDS011;70041;46.088;18.268;2023-12-04T05:43:59;11.83;;;6.17;;
80675;SDS011;70041;46.088;18.268;2023-12-04T05:46:25;15.70;;;5.40;;
80675;SDS011;70041;46.088;18.268;2023-12-04T05:48:50;14.67;;;7.50;;
80675;SDS011;70041;46.088;18.268;2023-12-04T05:51:16;17.67;;;7.23;;
80675;SDS011;70041;46.088;18.268;2023-12-04T05:53:41;12.27;;;5.20;;
80675;SDS011;70041;46.088;18.268;2023-12-04T05:56:07;16.27;;;6.07;;
80675;SDS011;70041;46.088;18.268;2023-12-04T05:58:34;15.17;;;5.33;;
80675;SDS011;70041;46.088;18.268;2023-12-04T06:00:59;16.65;;;6.82;;
80675;SDS011;70041;46.088;18.268;2023-12-04T06:03:25;26.47;;;7.10;;
80675;SDS011;70041;46.088;18.268;2023-12-04T06:05:50;15.25;;;6.80;;
80675;SDS011;70041;46.088;18.268;2023-12-04T06:08:16;10.63;;;6.15;;
80675;SDS011;70041;46.088;18.268;2023-12-04T06:10:41;12.43;;;6.33;;
80675;SDS011;70041;46.088;18.268;2023-12-04T06:13:06;13.90;;;5.27;;
80675;SDS011;70041;46.088;18.268;2023-12-04T06:15:32;17.87;;;7.03;;
80675;SDS011;70041;46.088;18.268;2023-12-04T06:17:57;13.83;;;6.20;;
80675;SDS011;70041;46.088;18.268;2023-12-04T06:20:23;16.60;;;7.00;;
80675;SDS011;70041;46.088;18.268;2023-12-04T06:22:48;16.35;;;6.22;;
80675;SDS011;70041;46.088;18.268;2023-12-04T06:25:14;13.63;;;6.72;;
80675;SDS011;70041;46.088;18.268;2023-12-04T06:27:40;10.68;;;4.55;;
80675;SDS011;70041;46.088;18.268;2023-12-04T06:30:06;16.73;;;6.80;;
80675;SDS011;70041;46.088;18.268;2023-12-04T06:32:32;12.60;;;5.68;;
80675;SDS011;70041;46.088;18.268;2023-12-04T06:34:57;12.88;;;6.30;;
80675;SDS011;70041;46.088;18.268;2023-12-04T06:37:23;14.10;;;6.50;;
80675;SDS011;70041;46.088;18.268;2023-12-04T06:39:49;10.97;;;5.97;;
80675;SDS011;70041;46.088;18.268;2023-12-04T06:42:17;11.85;;;6.38;;
80675;SDS011;70041;46.088;18.268;2023-12-04T06:44:43;18.70;;;6.72;;
80675;SDS011;70041;46.088;18.268;2023-12-04T06:47:09;15.77;;;6.73;;
80675;SDS011;70041;46.088;18.268;2023-12-04T06:49:36;14.43;;;6.45;;
80675;SDS011;70041;46.088;18.268;2023-12-04T06:52:02;12.13;;;6.33;;
80675;SDS011;70041;46.088;18.268;2023-12-04T06:54:28;9.57;;;5.07;;
80675;SDS011;70041;46.088;18.268;2023-12-04T06:56:55;17.80;;;6.90;;
80675;SDS011;70041;46.088;18.268;2023-12-04T06:59:21;12.50;;;6.97;;
80675;SDS011;70041;46.088;18.268;2023-12-04T07:01:46;16.93;;;8.90;;
80675;SDS011;70041;46.088;18.268;2023-12-04T07:04:12;18.73;;;7.63;;
80675;SDS011;70041;46.088;18.268;2023-12-04T07:06:39;16.67;;;9.07;;
80675;SDS011;70041;46.088;18.268;2023-12-04T07:09:04;16.05;;;6.28;;
80675;SDS011;70041;46.088;18.268;2023-12-04T07:11:32;13.73;;;5.57;;
80675;SDS011;70041;46.088;18.268;2023-12-04T07:13:58;16.93;;;7.77;;
80675;SDS011;70041;46.088;18.268;2023-12-04T07:16:24;13.75;;;7.45;;
80675;SDS011;70041;46.088;18.268;2023-12-04T07:18:49;14.70;;;6.50;;
80675;SDS011;70041;46.088;18.268;2023-12-04T07:21:15;13.73;;;6.28;;
80675;SDS011;70041;46.088;18.268;2023-12-04T07:23:40;19.80;;;8.00;;
80675;SDS011;70041;46.088;18.268;2023-12-04T07:26:06;23.60;;;8.43;;
80675;SDS011;70041;46.088;18.268;2023-12-04T07:28:32;20.85;;;8.82;;
80675;SDS011;70041;46.088;18.268;2023-12-04T07:30:58;22.20;;;11.83;;
80675;SDS011;70041;46.088;18.268;2023-12-04T07:33:23;24.70;;;12.02;;
80675;SDS011;70041;46.088;18.268;2023-12-04T07:35:49;25.20;;;12.73;;
80675;SDS011;70041;46.088;18.268;2023-12-04T07:38:16;23.63;;;13.80;;
80675;SDS011;70041;46.088;18.268;2023-12-04T07:40:41;28.23;;;15.37;;
80675;SDS011;70041;46.088;18.268;2023-12-04T07:43:07;28.73;;;15.53;;
80675;SDS011;70041;46.088;18.268;2023-12-04T07:45:32;28.65;;;15.95;;
80675;SDS011;70041;46.088;18.268;2023-12-04T07:47:59;28.83;;;13.03;;
80675;SDS011;70041;46.088;18.268;2023-12-04T07:50:25;24.10;;;11.30;;
80675;SDS011;70041;46.088;18.268;2023-12-04T07:52:51;22.70;;;10.77;;
80675;SDS011;70041;46.088;18.268;2023-12-04T07:55:16;15.50;;;8.45;;
80675;SDS011;70041;46.088;18.268;2023-12-04T07:57:42;11.23;;;6.13;;
80675;SDS011;70041;46.088;18.268;2023-12-04T08:00:08;13.27;;;5.43;;
80675;SDS011;70041;46.088;18.268;2023-12-04T08:02:33;18.27;;;7.05;;
80675;SDS011;70041;46.088;18.268;2023-12-04T08:04:59;17.30;;;7.00;;
80675;SDS011;70041;46.088;18.268;2023-12-04T08:07:24;16.50;;;6.75;;
80675;SDS011;70041;46.088;18.268;2023-12-04T08:09:50;10.30;;;4.88;;
80675;SDS011;70041;46.088;18.268;2023-12-04T08:12:15;8.73;;;4.30;;
80675;SDS011;70041;46.088;18.268;2023-12-04T08:14:41;12.13;;;4.67;;
80675;SDS011;70041;46.088;18.268;2023-12-04T08:17:06;11.03;;;3.93;;
80675;SDS011;70041;46.088;18.268;2023-12-04T08:19:31;9.35;;;3.45;;
80675;SDS011;70041;46.088;18.268;2023-12-04T08:21:57;9.80;;;4.40;;
80675;SDS011;70041;46.088;18.268;2023-12-04T08:24:23;11.18;;;4.07;;
80675;SDS011;70041;46.088;18.268;2023-12-04T08:26:48;12.17;;;4.20;;
80675;SDS011;70041;46.088;18.268;2023-12-04T08:29:15;11.63;;;4.80;;
80675;SDS011;70041;46.088;18.268;2023-12-04T08:31:41;6.50;;;3.13;;
80675;SDS011;70041;46.088;18.268;2023-12-04T08:34:07;10.85;;;4.57;;
80675;SDS011;70041;46.088;18.268;2023-12-04T08:36:32;10.50;;;4.20;;
80675;SDS011;70041;46.088;18.268;2023-12-04T08:38:58;13.20;;;5.00;;
80675;SDS011;70041;46.088;18.268;2023-12-04T08:41:23;9.47;;;3.37;;
80675;SDS011;70041;46.088;18.268;2023-12-04T08:43:48;8.97;;;3.47;;
80675;SDS011;70041;46.088;18.268;2023-12-04T08:46:14;10.53;;;5.60;;
80675;SDS011;70041;46.088;18.268;2023-12-04T08:48:42;7.47;;;3.95;;
80675;SDS011;70041;46.088;18.268;2023-12-04T08:51:14;10.85;;;4.05;;
80675;SDS011;70041;46.088;18.268;2023-12-04T08:53:40;9.40;;;3.20;;
80675;SDS011;70041;46.088;18.268;2023-12-04T08:56:06;10.15;;;3.53;;
80675;SDS011;70041;46.088;18.268;2023-12-04T08:58:32;9.30;;;3.60;;
80675;SDS011;70041;46.088;18.268;2023-12-04T09:00:57;7.73;;;3.13;;
80675;SDS011;70041;46.088;18.268;2023-12-04T09:03:23;8.75;;;3.63;;
80675;SDS011;70041;46.088;18.268;2023-12-04T09:05:49;8.93;;;3.33;;
80675;SDS011;70041;46.088;18.268;2023-12-04T09:08:16;9.87;;;3.43;;
80675;SDS011;70041;46.088;18.268;2023-12-04T09:10:43;8.98;;;3.20;;
80675;SDS011;70041;46.088;18.268;2023-12-04T09:13:08;8.63;;;3.03;;
80675;SDS011;70041;46.088;18.268;2023-12-04T09:15:34;10.18;;;4.40;;
80675;SDS011;70041;46.088;18.268;2023-12-04T09:17:59;8.32;;;3.20;;
80675;SDS011;70041;46.088;18.268;2023-12-04T09:20:25;7.17;;;3.00;;
80675;SDS011;70041;46.088;18.268;2023-12-04T09:22:50;5.80;;;2.17;;
80675;SDS011;70041;46.088;18.268;2023-12-04T09:25:16;11.57;;;3.47;;
80675;SDS011;70041;46.088;18.268;2023-12-04T09:27:41;7.32;;;2.55;;
80675;SDS011;70041;46.088;18.268;2023-12-04T09:30:07;10.00;;;3.80;;
80675;SDS011;70041;46.088;18.268;2023-12-04T09:32:32;6.33;;;3.17;;
80675;SDS011;70041;46.088;18.268;2023-12-04T09:34:58;9.40;;;3.65;;
80675;SDS011;70041;46.088;18.268;2023-12-04T09:37:23;4.97;;;2.53;;
80675;SDS011;70041;46.088;18.268;2023-12-04T09:39:49;9.37;;;4.07;;
80675;SDS011;70041;46.088;18.268;2023-12-04T09:42:15;12.77;;;4.40;;
80675;SDS011;70041;46.088;18.268;2023-12-04T09:44:43;7.07;;;3.30;;
80675;SDS011;70041;46.088;18.268;2023-12-04T09:47:09;7.03;;;2.77;;
80675;SDS011;70041;46.088;18.268;2023-12-04T09:49:35;11.05;;;3.95;;
80675;SDS011;70041;46.088;18.268;2023-12-04T09:52:01;6.47;;;2.53;;
80675;SDS011;70041;46.088;18.268;2023-12-04T09:54:30;7.38;;;2.47;;
80675;SDS011;70041;46.088;18.268;2023-12-04T09:56:55;11.73;;;2.95;;
80675;SDS011;70041;46.088;18.268;2023-12-04T09:59:23;6.90;;;3.07;;
80675;SDS011;70041;46.088;18.268;2023-12-04T10:01:52;6.55;;;2.08;;
80675;SDS011;70041;46.088;18.268;2023-12-04T10:04:18;7.20;;;3.08;;
80675;SDS011;70041;46.088;18.268;2023-12-04T10:06:44;7.07;;;2.80;;
80675;SDS011;70041;46.088;18.268;2023-12-04T10:09:10;9.52;;;2.63;;
80675;SDS011;70041;46.088;18.268;2023-12-04T10:11:41;7.47;;;2.78;;
80675;SDS011;70041;46.088;18.268;2023-12-04T10:14:14;6.28;;;2.28;;
80675;SDS011;70041;46.088;18.268;2023-12-04T10:16:40;4.15;;;1.77;;
80675;SDS011;70041;46.088;18.268;2023-12-04T10:21:43;11.30;;;3.72;;
80675;SDS011;70041;46.088;18.268;2023-12-04T10:24:09;7.30;;;2.63;;
80675;SDS011;70041;46.088;18.268;2023-12-04T10:26:35;6.13;;;2.47;;
80675;SDS011;70041;46.088;18.268;2023-12-04T10:29:01;6.13;;;2.80;;
80675;SDS011;70041;46.088;18.268;2023-12-04T10:31:34;5.82;;;2.10;;
80675;SDS011;70041;46.088;18.268;2023-12-04T10:34:00;6.85;;;2.63;;
80675;SDS011;70041;46.088;18.268;2023-12-04T10:36:26;5.70;;;2.95;;
80675;SDS011;70041;46.088;18.268;2023-12-04T10:38:58;6.57;;;3.07;;
80675;SDS011;70041;46.088;18.268;2023-12-04T10:41:29;5.18;;;2.28;;
80675;SDS011;70041;46.088;18.268;2023-12-04T10:43:55;4.87;;;2.23;;
80675;SDS011;70041;46.088;18.268;2023-12-04T10:46:21;4.90;;;2.22;;
80675;SDS011;70041;46.088;18.268;2023-12-04T10:48:47;6.07;;;3.07;;
80675;SDS011;70041;46.088;18.268;2023-12-04T10:51:12;7.03;;;2.47;;
80675;SDS011;70041;46.088;18.268;2023-12-04T10:53:40;4.47;;;2.08;;
80675;SDS011;70041;46.088;18.268;2023-12-04T10:56:10;6.60;;;2.63;;
80675;SDS011;70041;46.088;18.268;2023-12-04T10:58:42;3.90;;;1.87;;
80675;SDS011;70041;46.088;18.268;2023-12-04T11:01:10;4.55;;;2.22;;
80675;SDS011;70041;46.088;18.268;2023-12-04T11:03:40;6.10;;;2.47;;
80675;SDS011;70041;46.088;18.268;2023-12-04T11:06:10;4.97;;;2.30;;
80675;SDS011;70041;46.088;18.268;2023-12-04T11:08:38;6.50;;;3.15;;
80675;SDS011;70041;46.088;18.268;2023-12-04T11:11:08;4.40;;;2.10;;
80675;SDS011;70041;46.088;18.268;2023-12-04T11:13:39;5.38;;;1.48;;
80675;SDS011;70041;46.088;18.268;2023-12-04T11:18:55;5.28;;;3.13;;
80675;SDS011;70041;46.088;18.268;2023-12-04T11:21:26;4.13;;;2.08;;
80675;SDS011;70041;46.088;18.268;2023-12-04T11:23:53;6.93;;;2.67;;
80675;SDS011;70041;46.088;18.268;2023-12-04T11:26:19;6.10;;;2.75;;
80675;SDS011;70041;46.088;18.268;2023-12-04T11:28:45;7.07;;;3.08;;
80675;SDS011;70041;46.088;18.268;2023-12-04T11:31:11;4.97;;;2.77;;
80675;SDS011;70041;46.088;18.268;2023-12-04T11:33:37;6.50;;;2.90;;
80675;SDS011;70041;46.088;18.268;2023-12-04T11:36:11;2.97;;;1.95;;
80675;SDS011;70041;46.088;18.268;2023-12-04T11:38:38;5.57;;;2.22;;
80675;SDS011;70041;46.088;18.268;2023-12-04T11:41:19;4.93;;;2.37;;
80675;SDS011;70041;46.088;18.268;2023-12-04T11:43:45;4.35;;;2.10;;
80675;SDS011;70041;46.088;18.268;2023-12-04T11:46:21;4.70;;;2.17;;
80675;SDS011;70041;46.088;18.268;2023-12-04T11:48:48;4.68;;;2.17;;
80675;SDS011;70041;46.088;18.268;2023-12-04T11:54:04;4.30;;;2.00;;
80675;SDS011;70041;46.088;18.268;2023-12-04T11:56:32;16.70;;;4.95;;
80675;SDS011;70041;46.088;18.268;2023-12-04T11:59:04;10.80;;;4.47;;
80675;SDS011;70041;46.088;18.268;2023-12-04T12:01:37;8.00;;;3.13;;
80675;SDS011;70041;46.088;18.268;2023-12-04T12:04:06;8.93;;;3.70;;
80675;SDS011;70041;46.088;18.268;2023-12-04T12:06:32;7.53;;;3.13;;
80675;SDS011;70041;46.088;18.268;2023-12-04T12:08:57;7.03;;;3.13;;
80675;SDS011;70041;46.088;18.268;2023-12-04T12:11:23;6.80;;;2.17;;
80675;SDS011;70041;46.088;18.268;2023-12-04T12:13:49;8.77;;;3.17;;
80675;SDS011;70041;46.088;18.268;2023-12-04T12:16:14;7.50;;;3.47;;
80675;SDS011;70041;46.088;18.268;2023-12-04T12:18:40;7.00;;;2.50;;
80675;SDS011;70041;46.088;18.268;2023-12-04T12:21:06;7.53;;;3.20;;
80675;SDS011;70041;46.088;18.268;2023-12-04T12:23:32;4.78;;;2.50;;
80675;SDS011;70041;46.088;18.268;2023-12-04T12:25:58;7.95;;;2.63;;
80675;SDS011;70041;46.088;18.268;2023-12-04T12:28:24;7.03;;;2.60;;
80675;SDS011;70041;46.088;18.268;2023-12-04T12:30:49;6.70;;;3.60;;
80675;SDS011;70041;46.088;18.268;2023-12-04T12:33:15;6.63;;;2.87;;
80675;SDS011;70041;46.088;18.268;2023-12-04T12:35:41;9.02;;;3.60;;
80675;SDS011;70041;46.088;18.268;2023-12-04T12:38:06;6.00;;;2.83;;
80675;SDS011;70041;46.088;18.268;2023-12-04T12:40:32;6.85;;;3.53;;
80675;SDS011;70041;46.088;18.268;2023-12-04T12:43:04;9.00;;;2.27;;
80675;SDS011;70041;46.088;18.268;2023-12-04T12:45:40;5.88;;;2.92;;
80675;SDS011;70041;46.088;18.268;2023-12-04T12:48:10;6.35;;;3.03;;
80675;SDS011;70041;46.088;18.268;2023-12-04T12:50:38;7.25;;;2.88;;
80675;SDS011;70041;46.088;18.268;2023-12-04T12:53:04;11.27;;;4.23;;
80675;SDS011;70041;46.088;18.268;2023-12-04T12:55:29;4.70;;;2.40;;
80675;SDS011;70041;46.088;18.268;2023-12-04T12:57:55;7.17;;;3.10;;
80675;SDS011;70041;46.088;18.268;2023-12-04T13:00:21;6.15;;;2.70;;
80675;SDS011;70041;46.088;18.268;2023-12-04T13:02:47;7.97;;;3.63;;
80675;SDS011;70041;46.088;18.268;2023-12-04T13:05:13;7.30;;;3.27;;
80675;SDS011;70041;46.088;18.268;2023-12-04T13:07:38;6.68;;;3.13;;
80675;SDS011;70041;46.088;18.268;2023-12-04T13:10:04;7.27;;;2.57;;
80675;SDS011;70041;46.088;18.268;2023-12-04T13:12:30;7.18;;;3.58;;
80675;SDS011;70041;46.088;18.268;2023-12-04T13:14:57;7.50;;;3.27;;
80675;SDS011;70041;46.088;18.268;2023-12-04T13:17:22;7.82;;;3.20;;
80675;SDS011;70041;46.088;18.268;2023-12-04T13:19:47;7.40;;;3.60;;
80675;SDS011;70041;46.088;18.268;2023-12-04T13:22:13;7.63;;;3.37;;
80675;SDS011;70041;46.088;18.268;2023-12-04T13:24:38;6.50;;;2.37;;
80675;SDS011;70041;46.088;18.268;2023-12-04T13:27:06;9.52;;;3.70;;
80675;SDS011;70041;46.088;18.268;2023-12-04T13:29:31;8.70;;;3.73;;
80675;SDS011;70041;46.088;18.268;2023-12-04T13:31:57;5.70;;;2.97;;
80675;SDS011;70041;46.088;18.268;2023-12-04T13:34:24;5.00;;;1.80;;
80675;SDS011;70041;46.088;18.268;2023-12-04T13:36:49;6.03;;;3.10;;
80675;SDS011;70041;46.088;18.268;2023-12-04T13:39:15;7.43;;;3.13;;
80675;SDS011;70041;46.088;18.268;2023-12-04T13:41:51;6.47;;;2.53;;
80675;SDS011;70041;46.088;18.268;2023-12-04T13:44:35;7.05;;;2.80;;
80675;SDS011;70041;46.088;18.268;2023-12-04T13:47:00;4.43;;;1.70;;
80675;SDS011;70041;46.088;18.268;2023-12-04T13:49:26;5.83;;;2.20;;
80675;SDS011;70041;46.088;18.268;2023-12-04T13:51:51;10.25;;;4.88;;
80675;SDS011;70041;46.088;18.268;2023-12-04T13:54:18;10.70;;;4.23;;
80675;SDS011;70041;46.088;18.268;2023-12-04T13:56:51;6.07;;;2.95;;
80675;SDS011;70041;46.088;18.268;2023-12-04T13:59:20;5.30;;;2.88;;
80675;SDS011;70041;46.088;18.268;2023-12-04T14:01:46;6.07;;;2.53;;
80675;SDS011;70041;46.088;18.268;2023-12-04T14:04:14;10.70;;;4.10;;
80675;SDS011;70041;46.088;18.268;2023-12-04T14:06:40;8.13;;;4.15;;
80675;SDS011;70041;46.088;18.268;2023-12-04T14:09:05;7.97;;;3.77;;
80675;SDS011;70041;46.088;18.268;2023-12-04T14:11:35;6.43;;;3.03;;
80675;SDS011;70041;46.088;18.268;2023-12-04T14:14:03;10.07;;;3.40;;
80675;SDS011;70041;46.088;18.268;2023-12-04T14:16:29;8.57;;;4.07;;
80675;SDS011;70041;46.088;18.268;2023-12-04T14:18:55;7.78;;;3.35;;
80675;SDS011;70041;46.088;18.268;2023-12-04T14:21:20;10.70;;;3.70;;
80675;SDS011;70041;46.088;18.268;2023-12-04T14:23:46;8.97;;;3.73;;
80675;SDS011;70041;46.088;18.268;2023-12-04T14:26:11;13.27;;;4.67;;
80675;SDS011;70041;46.088;18.268;2023-12-04T14:28:37;11.73;;;4.40;;